Olenegorsk, Russia
Current Conditions -  °F | °C
As of 5:00 PM on Monday 22 Dec 2014 (Local Time) from ULMM Reporting Station
Clear Clear  
Wind Chill: -8°   Ceiling: Unl
Heat Index: -8°   Visibility: 6mi
Dew Point: -13°   Wind: 2mph
Humidity: 77%   Direction: NA
Pressure: 29.32"   Gusts: NA
Location:  68.15°N, 33.3°E
Report Text: ULMM 221400Z VRB01MPS CAVOK M22/M25 Q0993 NOSIG RMK QFE738 13490134
Loading
Personal Weather Stations






























Interactive Weather Map New forecast layout! Learn more

10-Day Weather Forecast

Advertisements
Track Severe Weather on mobile